sensor_id;sensor_type;location;lat;lon;timestamp;pressure;altitude;pressure_sealevel;temperature;humidity
70982;BME280;58640;51.320;9.456;2023-06-22T00:00:56;99639.69;;;20.63;99.20
70982;BME280;58640;51.320;9.456;2023-06-22T00:03:23;99640.06;;;20.55;100.00
70982;BME280;58640;51.320;9.456;2023-06-22T00:05:50;99635.31;;;20.62;99.17
70982;BME280;58640;51.320;9.456;2023-06-22T00:08:23;99630.53;;;20.46;100.00
70982;BME280;58640;51.320;9.456;2023-06-22T00:10:51;99641.38;;;20.64;99.01
70982;BME280;58640;51.320;9.456;2023-06-22T00:13:21;99628.78;;;20.52;100.00
70982;BME280;58640;51.320;9.456;2023-06-22T00:15:48;99634.47;;;20.50;100.00
70982;BME280;58640;51.320;9.456;2023-06-22T00:18:14;99627.09;;;20.39;100.00
70982;BME280;58640;51.320;9.456;2023-06-22T00:20:41;99621.88;;;20.38;100.00
70982;BME280;58640;51.320;9.456;2023-06-22T00:23:07;99620.06;;;20.43;99.90
70982;BME280;58640;51.320;9.456;2023-06-22T00:25:37;99630.78;;;20.45;99.69
70982;BME280;58640;51.320;9.456;2023-06-22T00:28:06;99617.09;;;20.45;99.71
70982;BME280;58640;51.320;9.456;2023-06-22T00:30:33;99621.38;;;20.52;99.11
70982;BME280;58640;51.320;9.456;2023-06-22T00:32:59;99615.13;;;20.52;99.46
70982;BME280;58640;51.320;9.456;2023-06-22T00:35:25;99608.09;;;20.56;99.03
70982;BME280;58640;51.320;9.456;2023-06-22T00:37:58;99601.09;;;20.60;98.36
70982;BME280;58640;51.320;9.456;2023-06-22T00:40:28;99596.13;;;20.57;98.61
70982;BME280;58640;51.320;9.456;2023-06-22T00:42:54;99601.69;;;20.50;98.93
70982;BME280;58640;51.320;9.456;2023-06-22T00:45:19;99594.75;;;20.36;100.00
70982;BME280;58640;51.320;9.456;2023-06-22T00:47:45;99589.84;;;20.26;100.00
70982;BME280;58640;51.320;9.456;2023-06-22T00:50:15;99592.34;;;20.28;100.00
70982;BME280;58640;51.320;9.456;2023-06-22T00:52:43;99596.03;;;20.22;100.00
70982;BME280;58640;51.320;9.456;2023-06-22T00:55:09;99593.03;;;20.12;100.00
70982;BME280;58640;51.320;9.456;2023-06-22T00:57:35;99588.78;;;20.16;100.00
70982;BME280;58640;51.320;9.456;2023-06-22T01:00:03;99588.81;;;20.27;100.00
70982;BME280;58640;51.320;9.456;2023-06-22T01:02:31;99581.78;;;20.20;100.00
70982;BME280;58640;51.320;9.456;2023-06-22T01:04:57;99580.59;;;20.16;100.00
70982;BME280;58640;51.320;9.456;2023-06-22T01:07:35;99565.03;;;20.16;100.00
70982;BME280;58640;51.320;9.456;2023-06-22T01:10:22;99570.25;;;20.18;100.00
70982;BME280;58640;51.320;9.456;2023-06-22T01:12:52;99565.47;;;20.13;100.00
70982;BME280;58640;51.320;9.456;2023-06-22T01:15:27;99552.78;;;20.19;100.00
70982;BME280;58640;51.320;9.456;2023-06-22T01:17:56;99544.53;;;20.07;100.00
70982;BME280;58640;51.320;9.456;2023-06-22T01:20:25;99545.34;;;19.96;100.00
70982;BME280;58640;51.320;9.456;2023-06-22T01:23:02;99555.69;;;20.06;100.00
70982;BME280;58640;51.320;9.456;2023-06-22T01:28:35;99553.44;;;20.03;100.00
70982;BME280;58640;51.320;9.456;2023-06-22T01:31:01;99545.81;;;19.93;100.00
70982;BME280;58640;51.320;9.456;2023-06-22T01:33:33;99543.50;;;19.79;100.00
70982;BME280;58640;51.320;9.456;2023-06-22T01:36:00;99550.28;;;19.76;100.00
70982;BME280;58640;51.320;9.456;2023-06-22T01:38:28;99553.25;;;19.75;100.00
70982;BME280;58640;51.320;9.456;2023-06-22T01:40:54;99554.09;;;19.87;100.00
70982;BME280;58640;51.320;9.456;2023-06-22T01:43:21;99558.75;;;19.98;100.00
70982;BME280;58640;51.320;9.456;2023-06-22T01:45:51;99561.88;;;20.01;100.00
70982;BME280;58640;51.320;9.456;2023-06-22T01:48:19;99563.66;;;19.96;100.00
70982;BME280;58640;51.320;9.456;2023-06-22T01:50:44;99560.50;;;19.81;100.00
70982;BME280;58640;51.320;9.456;2023-06-22T01:53:10;99568.69;;;19.81;100.00
70982;BME280;58640;51.320;9.456;2023-06-22T01:55:38;99579.38;;;19.82;100.00
70982;BME280;58640;51.320;9.456;2023-06-22T01:58:03;99584.84;;;19.82;100.00
70982;BME280;58640;51.320;9.456;2023-06-22T02:00:34;99591.69;;;19.73;100.00
70982;BME280;58640;51.320;9.456;2023-06-22T02:03:23;99594.47;;;19.85;100.00
70982;BME280;58640;51.320;9.456;2023-06-22T02:05:58;99599.56;;;19.93;100.00
70982;BME280;58640;51.320;9.456;2023-06-22T02:08:34;99613.38;;;19.98;100.00
70982;BME280;58640;51.320;9.456;2023-06-22T02:11:01;99618.66;;;19.81;100.00
70982;BME280;58640;51.320;9.456;2023-06-22T02:13:27;99624.13;;;19.81;100.00
70982;BME280;58640;51.320;9.456;2023-06-22T02:15:56;99624.50;;;19.85;100.00
70982;BME280;58640;51.320;9.456;2023-06-22T02:18:23;99620.53;;;19.99;100.00
70982;BME280;58640;51.320;9.456;2023-06-22T02:20:52;99636.28;;;19.97;100.00
70982;BME280;58640;51.320;9.456;2023-06-22T02:23:22;99641.00;;;19.90;100.00
70982;BME280;58640;51.320;9.456;2023-06-22T02:25:55;99637.38;;;19.96;100.00
70982;BME280;58640;51.320;9.456;2023-06-22T02:28:30;99638.19;;;19.96;100.00
70982;BME280;58640;51.320;9.456;2023-06-22T02:30:57;99637.72;;;19.99;100.00
70982;BME280;58640;51.320;9.456;2023-06-22T02:33:41;99647.06;;;19.92;100.00
70982;BME280;58640;51.320;9.456;2023-06-22T02:36:40;99639.81;;;19.86;100.00
70982;BME280;58640;51.320;9.456;2023-06-22T02:39:42;99644.94;;;19.94;100.00
70982;BME280;58640;51.320;9.456;2023-06-22T02:45:38;99636.19;;;20.03;100.00
70982;BME280;58640;51.320;9.456;2023-06-22T02:48:08;99639.88;;;20.09;100.00
70982;BME280;58640;51.320;9.456;2023-06-22T02:57:11;99649.38;;;20.06;100.00
70982;BME280;58640;51.320;9.456;2023-06-22T02:59:42;99635.66;;;20.13;100.00
70982;BME280;58640;51.320;9.456;2023-06-22T03:02:09;99635.88;;;20.11;100.00
70982;BME280;58640;51.320;9.456;2023-06-22T03:04:35;99637.16;;;20.09;100.00
70982;BME280;58640;51.320;9.456;2023-06-22T03:07:24;99630.13;;;20.01;100.00
70982;BME280;58640;51.320;9.456;2023-06-22T03:11:05;99635.78;;;19.88;100.00
70982;BME280;58640;51.320;9.456;2023-06-22T03:16:48;99625.31;;;19.85;100.00
70982;BME280;58640;51.320;9.456;2023-06-22T03:19:13;99618.50;;;19.94;100.00
70982;BME280;58640;51.320;9.456;2023-06-22T03:21:39;99627.50;;;19.95;100.00
70982;BME280;58640;51.320;9.456;2023-06-22T03:24:08;99612.22;;;20.05;100.00
70982;BME280;58640;51.320;9.456;2023-06-22T03:26:34;99618.88;;;20.09;99.40
70982;BME280;58640;51.320;9.456;2023-06-22T03:28:59;99615.63;;;20.01;100.00
70982;BME280;58640;51.320;9.456;2023-06-22T03:31:25;99611.44;;;19.87;100.00
70982;BME280;58640;51.320;9.456;2023-06-22T03:33:50;99617.34;;;19.84;100.00
70982;BME280;58640;51.320;9.456;2023-06-22T03:36:17;99615.84;;;19.88;100.00
70982;BME280;58640;51.320;9.456;2023-06-22T03:38:50;99606.81;;;19.87;100.00
70982;BME280;58640;51.320;9.456;2023-06-22T03:41:15;99607.28;;;19.84;100.00
70982;BME280;58640;51.320;9.456;2023-06-22T03:43:41;99598.00;;;19.85;100.00
70982;BME280;58640;51.320;9.456;2023-06-22T03:46:07;99605.25;;;19.80;100.00
70982;BME280;58640;51.320;9.456;2023-06-22T03:48:32;99596.69;;;19.76;100.00
70982;BME280;58640;51.320;9.456;2023-06-22T03:50:59;99602.59;;;19.73;100.00
70982;BME280;58640;51.320;9.456;2023-06-22T03:53:24;99600.25;;;19.77;100.00
70982;BME280;58640;51.320;9.456;2023-06-22T03:55:51;99596.38;;;19.66;100.00
70982;BME280;58640;51.320;9.456;2023-06-22T03:58:18;99609.56;;;19.69;100.00
70982;BME280;58640;51.320;9.456;2023-06-22T04:00:45;99606.69;;;19.64;100.00
70982;BME280;58640;51.320;9.456;2023-06-22T04:03:11;99596.91;;;19.75;100.00
70982;BME280;58640;51.320;9.456;2023-06-22T04:05:38;99586.72;;;19.82;100.00
70982;BME280;58640;51.320;9.456;2023-06-22T04:08:04;99586.00;;;19.75;100.00
70982;BME280;58640;51.320;9.456;2023-06-22T04:10:29;99588.56;;;19.70;100.00
70982;BME280;58640;51.320;9.456;2023-06-22T04:12:54;99580.53;;;19.75;100.00
70982;BME280;58640;51.320;9.456;2023-06-22T04:15:20;99587.34;;;19.66;100.00
70982;BME280;58640;51.320;9.456;2023-06-22T04:17:45;99583.19;;;19.93;100.00
70982;BME280;58640;51.320;9.456;2023-06-22T04:20:11;99591.13;;;19.83;100.00
70982;BME280;58640;51.320;9.456;2023-06-22T04:22:36;99583.66;;;19.78;100.00
70982;BME280;58640;51.320;9.456;2023-06-22T04:25:01;99590.28;;;19.82;100.00
70982;BME280;58640;51.320;9.456;2023-06-22T04:27:27;99586.28;;;19.85;100.00
70982;BME280;58640;51.320;9.456;2023-06-22T04:29:52;99584.31;;;19.74;100.00
70982;BME280;58640;51.320;9.456;2023-06-22T04:32:18;99591.06;;;19.71;100.00
70982;BME280;58640;51.320;9.456;2023-06-22T04:34:43;99583.72;;;19.72;100.00
70982;BME280;58640;51.320;9.456;2023-06-22T04:37:09;99581.16;;;19.77;100.00
70982;BME280;58640;51.320;9.456;2023-06-22T04:39:34;99585.53;;;19.78;100.00
70982;BME280;58640;51.320;9.456;2023-06-22T04:41:59;99584.88;;;19.64;100.00
70982;BME280;58640;51.320;9.456;2023-06-22T04:44:26;99589.91;;;19.79;100.00
70982;BME280;58640;51.320;9.456;2023-06-22T04:47:00;99591.91;;;19.72;100.00
70982;BME280;58640;51.320;9.456;2023-06-22T04:49:28;99596.91;;;19.75;100.00
70982;BME280;58640;51.320;9.456;2023-06-22T04:52:08;99592.06;;;19.77;100.00
70982;BME280;58640;51.320;9.456;2023-06-22T04:54:35;99591.84;;;19.78;100.00
70982;BME280;58640;51.320;9.456;2023-06-22T04:57:02;99593.78;;;19.89;100.00
70982;BME280;58640;51.320;9.456;2023-06-22T04:59:28;99587.94;;;19.86;100.00
70982;BME280;58640;51.320;9.456;2023-06-22T05:01:55;99586.50;;;19.83;100.00
70982;BME280;58640;51.320;9.456;2023-06-22T05:04:25;99586.00;;;19.75;100.00
70982;BME280;58640;51.320;9.456;2023-06-22T05:06:52;99581.41;;;19.87;100.00
70982;BME280;58640;51.320;9.456;2023-06-22T05:09:18;99571.94;;;19.89;100.00
70982;BME280;58640;51.320;9.456;2023-06-22T05:11:44;99575.72;;;19.88;100.00
70982;BME280;58640;51.320;9.456;2023-06-22T05:14:09;99578.19;;;19.78;100.00
70982;BME280;58640;51.320;9.456;2023-06-22T05:16:36;99574.69;;;20.01;100.00
70982;BME280;58640;51.320;9.456;2023-06-22T05:19:01;99569.69;;;19.98;100.00
70982;BME280;58640;51.320;9.456;2023-06-22T05:21:28;99568.41;;;20.00;100.00
70982;BME280;58640;51.320;9.456;2023-06-22T05:23:55;99563.88;;;19.94;100.00
70982;BME280;58640;51.320;9.456;2023-06-22T05:26:25;99557.34;;;19.95;100.00
70982;BME280;58640;51.320;9.456;2023-06-22T05:28:50;99571.97;;;20.12;100.00
70982;BME280;58640;51.320;9.456;2023-06-22T05:31:16;99569.88;;;20.14;100.00
70982;BME280;58640;51.320;9.456;2023-06-22T05:33:43;99568.47;;;20.23;100.00
70982;BME280;58640;51.320;9.456;2023-06-22T05:36:09;99562.44;;;20.33;100.00
70982;BME280;58640;51.320;9.456;2023-06-22T05:38:35;99564.00;;;20.29;100.00
70982;BME280;58640;51.320;9.456;2023-06-22T05:41:01;99573.25;;;20.40;100.00
70982;BME280;58640;51.320;9.456;2023-06-22T05:43:26;99568.75;;;20.33;100.00
70982;BME280;58640;51.320;9.456;2023-06-22T05:45:52;99581.94;;;20.48;100.00
70982;BME280;58640;51.320;9.456;2023-06-22T05:48:17;99572.56;;;20.56;100.00
70982;BME280;58640;51.320;9.456;2023-06-22T05:50:43;99571.50;;;20.68;100.00
70982;BME280;58640;51.320;9.456;2023-06-22T05:53:08;99578.41;;;20.59;100.00
70982;BME280;58640;51.320;9.456;2023-06-22T05:55:34;99578.03;;;20.67;100.00
70982;BME280;58640;51.320;9.456;2023-06-22T05:57:59;99568.63;;;20.63;100.00
70982;BME280;58640;51.320;9.456;2023-06-22T06:00:25;99569.13;;;20.60;100.00
70982;BME280;58640;51.320;9.456;2023-06-22T06:02:50;99576.25;;;20.61;100.00
70982;BME280;58640;51.320;9.456;2023-06-22T06:05:16;99570.94;;;20.66;100.00
70982;BME280;58640;51.320;9.456;2023-06-22T06:07:42;99571.16;;;20.65;100.00
70982;BME280;58640;51.320;9.456;2023-06-22T06:10:08;99580.53;;;20.57;100.00
70982;BME280;58640;51.320;9.456;2023-06-22T06:12:33;99582.19;;;20.70;100.00
70982;BME280;58640;51.320;9.456;2023-06-22T06:14:59;99589.22;;;20.77;100.00
70982;BME280;58640;51.320;9.456;2023-06-22T06:17:24;99584.94;;;20.81;100.00
70982;BME280;58640;51.320;9.456;2023-06-22T06:19:49;99585.66;;;20.77;100.00
70982;BME280;58640;51.320;9.456;2023-06-22T06:22:15;99584.09;;;20.81;100.00
70982;BME280;58640;51.320;9.456;2023-06-22T06:24:40;99579.00;;;20.84;100.00
70982;BME280;58640;51.320;9.456;2023-06-22T06:27:06;99585.53;;;20.83;100.00
70982;BME280;58640;51.320;9.456;2023-06-22T06:29:31;99589.00;;;21.13;99.05
70982;BME280;58640;51.320;9.456;2023-06-22T06:31:57;99594.22;;;21.26;99.44
70982;BME280;58640;51.320;9.456;2023-06-22T06:34:22;99596.19;;;21.54;98.60
70982;BME280;58640;51.320;9.456;2023-06-22T06:36:48;99590.72;;;21.42;100.00
70982;BME280;58640;51.320;9.456;2023-06-22T06:39:13;99582.19;;;21.67;97.36
70982;BME280;58640;51.320;9.456;2023-06-22T06:41:38;99589.09;;;21.69;95.22
70982;BME280;58640;51.320;9.456;2023-06-22T06:44:04;99587.16;;;21.70;94.40
70982;BME280;58640;51.320;9.456;2023-06-22T06:46:29;99587.41;;;21.68;93.75
70982;BME280;58640;51.320;9.456;2023-06-22T06:48:55;99583.91;;;21.56;94.38
70982;BME280;58640;51.320;9.456;2023-06-22T06:51:20;99586.91;;;21.43;97.39
70982;BME280;58640;51.320;9.456;2023-06-22T06:53:45;99580.13;;;21.46;97.39
70982;BME280;58640;51.320;9.456;2023-06-22T06:56:11;99577.63;;;21.44;97.08
70982;BME280;58640;51.320;9.456;2023-06-22T06:58:37;99568.56;;;21.55;97.07
70982;BME280;58640;51.320;9.456;2023-06-22T07:01:02;99571.69;;;21.87;94.79
70982;BME280;58640;51.320;9.456;2023-06-22T07:03:28;99569.16;;;22.14;92.80
70982;BME280;58640;51.320;9.456;2023-06-22T07:05:53;99569.44;;;22.78;90.11
70982;BME280;58640;51.320;9.456;2023-06-22T07:08:19;99565.53;;;23.12;88.84
70982;BME280;58640;51.320;9.456;2023-06-22T07:10:44;99566.75;;;23.38;86.27
70982;BME280;58640;51.320;9.456;2023-06-22T07:13:09;99566.59;;;24.19;83.73
70982;BME280;58640;51.320;9.456;2023-06-22T07:15:35;99564.94;;;24.82;79.86
70982;BME280;58640;51.320;9.456;2023-06-22T07:18:00;99565.97;;;25.69;77.10
70982;BME280;58640;51.320;9.456;2023-06-22T07:20:26;99563.66;;;26.28;72.45
70982;BME280;58640;51.320;9.456;2023-06-22T07:22:51;99559.50;;;26.10;71.99
70982;BME280;58640;51.320;9.456;2023-06-22T07:25:17;99556.72;;;26.00;71.65
70982;BME280;58640;51.320;9.456;2023-06-22T07:28:06;99557.97;;;25.11;72.55
70982;BME280;58640;51.320;9.456;2023-06-22T07:30:33;99558.38;;;25.34;72.81
70982;BME280;58640;51.320;9.456;2023-06-22T07:32:59;99559.28;;;24.98;72.89
70982;BME280;58640;51.320;9.456;2023-06-22T07:35:30;99558.41;;;24.93;74.86
70982;BME280;58640;51.320;9.456;2023-06-22T07:37:55;99552.16;;;25.59;72.18
70982;BME280;58640;51.320;9.456;2023-06-22T07:40:21;99552.06;;;26.51;69.30
70982;BME280;58640;51.320;9.456;2023-06-22T07:42:46;99553.75;;;26.87;68.20
70982;BME280;58640;51.320;9.456;2023-06-22T07:45:16;99550.38;;;27.00;67.62
70982;BME280;58640;51.320;9.456;2023-06-22T07:47:42;99557.44;;;27.51;65.99
70982;BME280;58640;51.320;9.456;2023-06-22T07:50:07;99559.00;;;27.67;62.91
70982;BME280;58640;51.320;9.456;2023-06-22T07:52:33;99564.19;;;27.94;62.76
70982;BME280;58640;51.320;9.456;2023-06-22T07:54:58;99569.56;;;27.65;62.67
70982;BME280;58640;51.320;9.456;2023-06-22T07:57:24;99567.78;;;27.84;63.43
70982;BME280;58640;51.320;9.456;2023-06-22T07:59:57;99556.09;;;28.41;59.20
70982;BME280;58640;51.320;9.456;2023-06-22T08:02:22;99559.53;;;28.61;58.03
70982;BME280;58640;51.320;9.456;2023-06-22T08:04:48;99557.97;;;28.45;58.09
70982;BME280;58640;51.320;9.456;2023-06-22T08:07:13;99547.47;;;28.81;56.38
70982;BME280;58640;51.320;9.456;2023-06-22T08:09:46;99554.44;;;29.07;54.77
70982;BME280;58640;51.320;9.456;2023-06-22T08:12:11;99542.25;;;28.41;58.63
70982;BME280;58640;51.320;9.456;2023-06-22T08:14:38;99540.41;;;28.65;58.17
70982;BME280;58640;51.320;9.456;2023-06-22T08:17:04;99541.28;;;28.60;58.17
70982;BME280;58640;51.320;9.456;2023-06-22T08:19:29;99538.59;;;28.50;57.75
70982;BME280;58640;51.320;9.456;2023-06-22T08:21:54;99532.03;;;28.41;57.24
70982;BME280;58640;51.320;9.456;2023-06-22T08:24:20;99520.31;;;28.54;57.30
70982;BME280;58640;51.320;9.456;2023-06-22T08:26:45;99524.22;;;28.48;58.76
70982;BME280;58640;51.320;9.456;2023-06-22T08:29:11;99519.06;;;27.98;57.63
70982;BME280;58640;51.320;9.456;2023-06-22T08:31:36;99521.91;;;28.27;59.24
70982;BME280;58640;51.320;9.456;2023-06-22T08:34:02;99519.38;;;27.92;57.04
70982;BME280;58640;51.320;9.456;2023-06-22T08:36:27;99507.91;;;28.42;58.47
70982;BME280;58640;51.320;9.456;2023-06-22T08:38:58;99506.22;;;28.51;58.22
70982;BME280;58640;51.320;9.456;2023-06-22T08:41:26;99512.16;;;28.34;59.81
70982;BME280;58640;51.320;9.456;2023-06-22T08:43:52;99519.72;;;28.86;57.04
70982;BME280;58640;51.320;9.456;2023-06-22T08:46:18;99517.97;;;28.95;56.90
70982;BME280;58640;51.320;9.456;2023-06-22T08:48:48;99515.19;;;28.95;56.39
70982;BME280;58640;51.320;9.456;2023-06-22T08:51:13;99512.72;;;28.94;55.54
70982;BME280;58640;51.320;9.456;2023-06-22T08:53:39;99510.19;;;28.97;56.88
70982;BME280;58640;51.320;9.456;2023-06-22T08:56:04;99507.94;;;29.28;55.33
70982;BME280;58640;51.320;9.456;2023-06-22T08:58:30;99507.97;;;28.99;55.86
70982;BME280;58640;51.320;9.456;2023-06-22T09:00:55;99502.81;;;28.88;55.93
70982;BME280;58640;51.320;9.456;2023-06-22T09:03:20;99492.84;;;28.87;56.31
70982;BME280;58640;51.320;9.456;2023-06-22T09:05:46;99477.34;;;27.95;57.75
70982;BME280;58640;51.320;9.456;2023-06-22T09:08:11;99474.69;;;28.13;57.90
70982;BME280;58640;51.320;9.456;2023-06-22T09:10:36;99474.66;;;28.18;58.99
70982;BME280;58640;51.320;9.456;2023-06-22T09:13:02;99465.03;;;28.11;58.43
70982;BME280;58640;51.320;9.456;2023-06-22T09:15:27;99473.16;;;27.97;62.05
70982;BME280;58640;51.320;9.456;2023-06-22T09:17:53;99475.81;;;28.12;60.96
70982;BME280;58640;51.320;9.456;2023-06-22T09:20:19;99480.59;;;28.02;60.78
70982;BME280;58640;51.320;9.456;2023-06-22T09:22:45;99471.13;;;28.13;60.15
70982;BME280;58640;51.320;9.456;2023-06-22T09:25:10;99477.66;;;28.22;59.43
70982;BME280;58640;51.320;9.456;2023-06-22T09:27:36;99471.84;;;27.80;62.78
70982;BME280;58640;51.320;9.456;2023-06-22T09:30:01;99468.66;;;28.11;63.01
70982;BME280;58640;51.320;9.456;2023-06-22T09:32:28;99462.63;;;28.33;61.62
70982;BME280;58640;51.320;9.456;2023-06-22T09:34:53;99458.16;;;28.71;59.13
70982;BME280;58640;51.320;9.456;2023-06-22T09:37:19;99460.47;;;28.58;59.99
70982;BME280;58640;51.320;9.456;2023-06-22T09:39:44;99458.88;;;28.52;61.16
70982;BME280;58640;51.320;9.456;2023-06-22T09:42:10;99448.44;;;28.73;59.66
70982;BME280;58640;51.320;9.456;2023-06-22T09:44:35;99446.63;;;29.11;59.19
70982;BME280;58640;51.320;9.456;2023-06-22T09:47:01;99443.59;;;29.49;58.05
70982;BME280;58640;51.320;9.456;2023-06-22T09:49:26;99442.56;;;29.45;58.53
70982;BME280;58640;51.320;9.456;2023-06-22T09:51:51;99442.03;;;29.43;57.59
70982;BME280;58640;51.320;9.456;2023-06-22T09:54:17;99437.91;;;29.41;56.76
70982;BME280;58640;51.320;9.456;2023-06-22T09:56:43;99427.28;;;29.48;57.24
70982;BME280;58640;51.320;9.456;2023-06-22T09:59:08;99422.56;;;29.48;55.34
70982;BME280;58640;51.320;9.456;2023-06-22T10:01:33;99429.63;;;29.17;56.93
70982;BME280;58640;51.320;9.456;2023-06-22T10:03:59;99431.44;;;29.08;56.63
70982;BME280;58640;51.320;9.456;2023-06-22T10:06:24;99425.59;;;29.10;56.41
70982;BME280;58640;51.320;9.456;2023-06-22T10:08:51;99423.22;;;28.75;58.29
70982;BME280;58640;51.320;9.456;2023-06-22T10:11:17;99420.13;;;28.52;58.60
70982;BME280;58640;51.320;9.456;2023-06-22T10:13:42;99409.81;;;28.29;59.57
70982;BME280;58640;51.320;9.456;2023-06-22T10:16:07;99410.91;;;28.62;58.97
70982;BME280;58640;51.320;9.456;2023-06-22T10:18:33;99404.38;;;28.77;58.70
70982;BME280;58640;51.320;9.456;2023-06-22T10:20:58;99411.09;;;28.94;59.40
70982;BME280;58640;51.320;9.456;2023-06-22T10:23:24;99392.72;;;29.22;56.26
70982;BME280;58640;51.320;9.456;2023-06-22T10:25:49;99397.41;;;29.26;59.14
70982;BME280;58640;51.320;9.456;2023-06-22T10:28:15;99386.38;;;29.21;57.34
70982;BME280;58640;51.320;9.456;2023-06-22T10:30:41;99378.72;;;29.13;57.77
70982;BME280;58640;51.320;9.456;2023-06-22T10:33:10;99388.03;;;28.99;59.70
70982;BME280;58640;51.320;9.456;2023-06-22T10:35:36;99369.88;;;29.11;56.06
70982;BME280;58640;51.320;9.456;2023-06-22T10:38:03;99372.88;;;29.15;57.95
70982;BME280;58640;51.320;9.456;2023-06-22T10:40:29;99365.91;;;29.17;56.00
70982;BME280;58640;51.320;9.456;2023-06-22T10:42:54;99361.28;;;29.13;59.79
70982;BME280;58640;51.320;9.456;2023-06-22T10:45:20;99368.19;;;29.15;55.54
70982;BME280;58640;51.320;9.456;2023-06-22T10:47:45;99357.25;;;28.82;53.82
70982;BME280;58640;51.320;9.456;2023-06-22T10:50:11;99343.25;;;28.92;54.78
70982;BME280;58640;51.320;9.456;2023-06-22T10:52:36;99338.84;;;28.91;55.05
70982;BME280;58640;51.320;9.456;2023-06-22T10:55:02;99341.25;;;28.97;54.93
70982;BME280;58640;51.320;9.456;2023-06-22T10:57:27;99344.81;;;28.79;54.14
70982;BME280;58640;51.320;9.456;2023-06-22T10:59:53;99337.34;;;28.98;50.83
70982;BME280;58640;51.320;9.456;2023-06-22T11:02:18;99332.53;;;28.38;49.47
70982;BME280;58640;51.320;9.456;2023-06-22T11:04:44;99328.06;;;28.42;50.21
70982;BME280;58640;51.320;9.456;2023-06-22T11:07:09;99331.03;;;28.74;51.14
70982;BME280;58640;51.320;9.456;2023-06-22T11:09:35;99324.69;;;28.92;50.37
70982;BME280;58640;51.320;9.456;2023-06-22T11:12:00;99319.44;;;28.72;51.81
70982;BME280;58640;51.320;9.456;2023-06-22T11:14:25;99328.09;;;28.66;52.98
70982;BME280;58640;51.320;9.456;2023-06-22T11:16:51;99321.19;;;28.39;54.07
70982;BME280;58640;51.320;9.456;2023-06-22T11:19:16;99315.34;;;28.41;53.83
70982;BME280;58640;51.320;9.456;2023-06-22T11:21:42;99315.88;;;28.48;52.91
70982;BME280;58640;51.320;9.456;2023-06-22T11:24:07;99313.34;;;28.46;51.33
70982;BME280;58640;51.320;9.456;2023-06-22T11:26:33;99312.22;;;28.71;52.34
70982;BME280;58640;51.320;9.456;2023-06-22T11:28:58;99306.75;;;28.42;50.77
70982;BME280;58640;51.320;9.456;2023-06-22T11:31:24;99297.00;;;28.50;52.07
70982;BME280;58640;51.320;9.456;2023-06-22T11:33:50;99278.84;;;28.39;52.86
70982;BME280;58640;51.320;9.456;2023-06-22T11:36:15;99274.78;;;28.55;52.56
70982;BME280;58640;51.320;9.456;2023-06-22T11:38:44;99265.94;;;28.29;53.16
70982;BME280;58640;51.320;9.456;2023-06-22T11:41:09;99271.34;;;28.21;53.84
70982;BME280;58640;51.320;9.456;2023-06-22T11:43:35;99263.84;;;28.21;54.26
70982;BME280;58640;51.320;9.456;2023-06-22T11:46:03;99262.16;;;28.25;54.68
70982;BME280;58640;51.320;9.456;2023-06-22T11:48:28;99255.09;;;28.14;53.52
70982;BME280;58640;51.320;9.456;2023-06-22T11:50:54;99256.13;;;28.18;52.54
70982;BME280;58640;51.320;9.456;2023-06-22T11:53:21;99249.06;;;28.31;52.56
70982;BME280;58640;51.320;9.456;2023-06-22T11:55:46;99243.16;;;28.37;52.63
70982;BME280;58640;51.320;9.456;2023-06-22T11:58:12;99238.72;;;28.41;53.49
70982;BME280;58640;51.320;9.456;2023-06-22T12:00:37;99229.78;;;28.26;52.58
70982;BME280;58640;51.320;9.456;2023-06-22T12:03:03;99228.28;;;28.33;52.12
70982;BME280;58640;51.320;9.456;2023-06-22T12:05:28;99214.91;;;28.40;52.63
70982;BME280;58640;51.320;9.456;2023-06-22T12:07:54;99205.09;;;28.29;51.79
70982;BME280;58640;51.320;9.456;2023-06-22T12:10:21;99195.69;;;28.30;52.13
70982;BME280;58640;51.320;9.456;2023-06-22T12:12:46;99192.25;;;28.38;50.70
70982;BME280;58640;51.320;9.456;2023-06-22T12:15:12;99204.16;;;28.15;51.45
70982;BME280;58640;51.320;9.456;2023-06-22T12:17:37;99195.75;;;28.25;53.37
70982;BME280;58640;51.320;9.456;2023-06-22T12:20:03;99197.44;;;28.21;51.77
70982;BME280;58640;51.320;9.456;2023-06-22T12:22:34;99196.66;;;28.21;51.21
70982;BME280;58640;51.320;9.456;2023-06-22T12:25:00;99189.94;;;28.27;50.10
70982;BME280;58640;51.320;9.456;2023-06-22T12:27:26;99192.56;;;28.13;50.11
70982;BME280;58640;51.320;9.456;2023-06-22T12:29:52;99195.69;;;28.30;50.39
70982;BME280;58640;51.320;9.456;2023-06-22T12:32:17;99193.91;;;28.39;50.43
70982;BME280;58640;51.320;9.456;2023-06-22T12:34:43;99190.38;;;28.34;47.08
70982;BME280;58640;51.320;9.456;2023-06-22T12:37:08;99184.91;;;28.52;47.64
70982;BME280;58640;51.320;9.456;2023-06-22T12:39:34;99175.56;;;28.67;47.83
70982;BME280;58640;51.320;9.456;2023-06-22T12:41:59;99171.13;;;28.66;48.41
70982;BME280;58640;51.320;9.456;2023-06-22T12:44:25;99169.94;;;28.72;47.15
70982;BME280;58640;51.320;9.456;2023-06-22T12:46:50;99164.19;;;28.69;45.30
70982;BME280;58640;51.320;9.456;2023-06-22T12:49:15;99157.81;;;28.68;46.50
70982;BME280;58640;51.320;9.456;2023-06-22T12:51:41;99152.28;;;28.68;47.67
70982;BME280;58640;51.320;9.456;2023-06-22T12:54:07;99150.47;;;28.77;50.16
70982;BME280;58640;51.320;9.456;2023-06-22T12:56:33;99157.06;;;28.81;47.30
70982;BME280;58640;51.320;9.456;2023-06-22T12:58:58;99157.22;;;28.71;47.36
70982;BME280;58640;51.320;9.456;2023-06-22T13:01:29;99146.59;;;28.78;46.89
70982;BME280;58640;51.320;9.456;2023-06-22T13:03:55;99151.75;;;28.85;47.25
70982;BME280;58640;51.320;9.456;2023-06-22T13:06:21;99141.59;;;28.80;47.98
70982;BME280;58640;51.320;9.456;2023-06-22T13:08:46;99125.19;;;28.65;46.90
70982;BME280;58640;51.320;9.456;2023-06-22T13:11:11;99111.66;;;28.63;47.71